createdAt,value
2023-04-30T00:02:12.474Z,100530.59
2023-04-30T00:04:38.989Z,100531.59
2023-04-30T00:07:05.490Z,100537.78
2023-04-30T00:09:32.013Z,100529.09
2023-04-30T00:11:58.530Z,100526.66
2023-04-30T00:14:25.169Z,100531.16
2023-04-30T00:16:51.726Z,100531.28
2023-04-30T00:19:18.319Z,100535.78
2023-04-30T00:21:44.813Z,100536.78
2023-04-30T00:24:11.321Z,100532.56
2023-04-30T00:26:37.891Z,100535.31
2023-04-30T00:29:07.523Z,100535.44
2023-04-30T00:31:34.025Z,100533.88
2023-04-30T00:34:00.699Z,100532.25
2023-04-30T00:36:27.247Z,100540.34
2023-04-30T00:38:53.855Z,100553.66
2023-04-30T00:41:21.953Z,100548.47
2023-04-30T00:43:48.455Z,100547.75
2023-04-30T00:46:15.088Z,100550.47
2023-04-30T00:48:41.759Z,100550.59
2023-04-30T00:51:08.569Z,100554.16
2023-04-30T00:53:36.103Z,100554.19
2023-04-30T00:56:02.759Z,100549.09
2023-04-30T00:58:29.908Z,100544.78
2023-04-30T01:00:56.821Z,100550.97
2023-04-30T01:03:23.603Z,100560.69
2023-04-30T01:05:50.491Z,100548.41
2023-04-30T01:08:17.328Z,100550.22
2023-04-30T01:11:17.269Z,100559.16
2023-04-30T01:13:55.604Z,100561.63
2023-04-30T01:16:30.332Z,100566.00
2023-04-30T01:19:00.893Z,100564.19
2023-04-30T01:21:30.932Z,100562.44
2023-04-30T01:24:34.498Z,100570.50
2023-04-30T01:27:31.777Z,100563.47
2023-04-30T01:29:59.381Z,100559.00
2023-04-30T01:32:25.879Z,100555.59
2023-04-30T01:34:52.382Z,100559.22
2023-04-30T01:37:33.781Z,100561.19
2023-04-30T01:40:20.767Z,100561.19
2023-04-30T01:42:50.511Z,100553.34
2023-04-30T01:45:35.131Z,100556.22
2023-04-30T01:48:23.655Z,100558.94
2023-04-30T01:50:50.246Z,100558.03
2023-04-30T01:53:33.135Z,100562.69
2023-04-30T01:58:26.666Z,100565.31
2023-04-30T02:00:53.508Z,100568.00
2023-04-30T02:03:20.066Z,100571.63
2023-04-30T02:05:47.417Z,100570.88
2023-04-30T02:08:13.845Z,100571.78
2023-04-30T02:10:40.302Z,100577.09
2023-04-30T02:13:06.695Z,100582.50
2023-04-30T02:15:33.170Z,100584.28
2023-04-30T02:17:59.711Z,100586.13
2023-04-30T02:20:26.228Z,100584.41
2023-04-30T02:22:52.802Z,100587.09
2023-04-30T02:25:19.221Z,100577.50
2023-04-30T02:27:45.620Z,100576.72
2023-04-30T02:30:12.014Z,100580.25
2023-04-30T02:32:38.562Z,100575.91
2023-04-30T02:35:05.661Z,100583.00
2023-04-30T02:37:32.003Z,100581.31
2023-04-30T02:39:58.481Z,100577.88
2023-04-30T02:42:24.924Z,100577.97
2023-04-30T02:44:51.466Z,100586.78
2023-04-30T02:47:17.894Z,100587.75
2023-04-30T02:49:44.412Z,100587.81
2023-04-30T02:52:10.854Z,100587.94
2023-04-30T02:54:37.268Z,100578.34
2023-04-30T02:57:03.818Z,100584.59
2023-04-30T02:59:30.314Z,100573.34
2023-04-30T03:01:56.673Z,100575.31
2023-04-30T03:04:23.045Z,100571.19
2023-04-30T03:06:49.438Z,100572.34
2023-04-30T03:09:15.897Z,100575.22
2023-04-30T03:11:42.364Z,100572.78
2023-04-30T03:14:08.891Z,100575.63
2023-04-30T03:16:35.317Z,100569.75
2023-04-30T03:19:01.838Z,100576.84
2023-04-30T03:21:28.425Z,100574.38
2023-04-30T03:23:54.892Z,100579.66
2023-04-30T03:26:22.001Z,100578.84
2023-04-30T03:28:48.417Z,100579.81
2023-04-30T03:31:15.233Z,100584.25
2023-04-30T03:33:41.762Z,100586.91
2023-04-30T03:36:08.186Z,100587.75
2023-04-30T03:38:34.552Z,100585.22
2023-04-30T03:41:00.954Z,100590.47
2023-04-30T03:43:27.295Z,100585.22
2023-04-30T03:45:53.765Z,100578.19
2023-04-30T03:48:21.315Z,100586.00
2023-04-30T03:50:47.905Z,100580.75
2023-04-30T03:53:14.306Z,100584.25
2023-04-30T03:55:41.385Z,100586.88
2023-04-30T03:58:08.233Z,100592.06
2023-04-30T04:00:34.827Z,100591.19
2023-04-30T04:03:01.407Z,100588.56
2023-04-30T04:05:27.932Z,100583.31
2023-04-30T04:07:54.362Z,100585.06
2023-04-30T04:10:21.059Z,100588.63
2023-04-30T04:12:48.752Z,100586.06
2023-04-30T04:15:15.263Z,100586.09
2023-04-30T04:17:41.671Z,100585.31
2023-04-30T04:20:08.762Z,100587.13
2023-04-30T04:22:35.358Z,100588.03
2023-04-30T04:25:01.889Z,100593.34
2023-04-30T04:27:28.459Z,100594.25
2023-04-30T04:29:55.127Z,100599.53
2023-04-30T04:32:22.701Z,100603.06
2023-04-30T04:34:49.588Z,100600.44
2023-04-30T04:37:17.402Z,100603.06
2023-04-30T04:39:45.059Z,100605.69
2023-04-30T04:42:12.030Z,100613.56
2023-04-30T04:44:38.471Z,100617.03
2023-04-30T04:47:05.165Z,100608.31
2023-04-30T04:49:31.569Z,100606.53
2023-04-30T04:51:57.938Z,100614.34
2023-04-30T04:54:24.452Z,100616.09
2023-04-30T04:56:51.616Z,100614.25
2023-04-30T04:59:18.800Z,100613.28
2023-04-30T05:01:45.229Z,100614.09
2023-04-30T05:04:13.801Z,100611.38
2023-04-30T05:06:41.386Z,100612.25
2023-04-30T05:09:09.355Z,100612.25
2023-04-30T05:11:36.317Z,100610.59
2023-04-30T05:14:02.953Z,100606.22
2023-04-30T05:16:30.010Z,100607.09
2023-04-30T05:18:56.434Z,100618.47
2023-04-30T05:21:23.090Z,100612.25
2023-04-30T05:23:49.547Z,100617.47
2023-04-30T05:26:16.671Z,100625.22
2023-04-30T05:28:43.142Z,100623.34
2023-04-30T05:31:09.708Z,100621.44
2023-04-30T05:33:37.136Z,100619.53
2023-04-30T05:36:03.963Z,100625.47
2023-04-30T05:38:30.483Z,100620.06
2023-04-30T05:40:56.821Z,100628.66
2023-04-30T05:43:23.251Z,100625.03
2023-04-30T05:45:49.686Z,100626.63
2023-04-30T05:48:16.217Z,100629.06
2023-04-30T05:50:43.488Z,100632.34
2023-04-30T05:53:09.855Z,100628.69
2023-04-30T05:55:36.349Z,100627.66
2023-04-30T05:58:02.823Z,100625.81
2023-04-30T06:00:29.349Z,100622.09
2023-04-30T06:02:55.990Z,100629.88
2023-04-30T06:05:22.515Z,100641.94
2023-04-30T06:07:48.935Z,100633.88
2023-04-30T06:10:15.611Z,100633.69
2023-04-30T06:12:42.149Z,100645.75
2023-04-30T06:15:08.922Z,100644.69
2023-04-30T06:17:35.616Z,100644.59
2023-04-30T06:20:06.761Z,100640.97
2023-04-30T06:22:34.321Z,100650.50
2023-04-30T06:25:00.929Z,100650.31
2023-04-30T06:27:32.159Z,100644.94
2023-04-30T06:30:00.701Z,100650.91
2023-04-30T06:32:27.404Z,100648.13
2023-04-30T06:34:53.809Z,100652.34
2023-04-30T06:37:20.274Z,100651.25
2023-04-30T06:39:46.791Z,100651.03
2023-04-30T06:42:13.222Z,100652.56
2023-04-30T06:44:39.735Z,100649.75
2023-04-30T06:47:06.155Z,100647.72
2023-04-30T06:49:32.485Z,100647.53
2023-04-30T06:51:58.969Z,100648.28
2023-04-30T06:54:26.676Z,100650.69
2023-04-30T06:57:01.099Z,100645.25
2023-04-30T06:59:29.097Z,100642.34
2023-04-30T07:01:55.693Z,100643.00
2023-04-30T07:04:24.452Z,100648.06
2023-04-30T07:06:51.347Z,100650.53
2023-04-30T07:09:17.792Z,100643.28
2023-04-30T07:11:45.126Z,100651.81
2023-04-30T07:14:11.534Z,100654.25
2023-04-30T07:16:37.890Z,100654.03
2023-04-30T07:19:10.342Z,100660.94
2023-04-30T07:21:36.727Z,100660.63
2023-04-30T07:24:03.163Z,100649.00
2023-04-30T07:26:29.599Z,100657.59
2023-04-30T07:28:56.000Z,100655.59
2023-04-30T07:31:22.551Z,100663.28
2023-04-30T07:33:50.499Z,100663.06
2023-04-30T07:36:16.904Z,100657.59
2023-04-30T07:38:43.615Z,100660.00
2023-04-30T07:41:11.096Z,100664.22
2023-04-30T07:43:37.466Z,100662.22
2023-04-30T07:46:04.023Z,100662.84
2023-04-30T07:48:30.920Z,100659.16
2023-04-30T07:50:57.466Z,100664.22
2023-04-30T07:53:24.209Z,100661.38
2023-04-30T07:58:22.826Z,100660.78
2023-04-30T08:00:49.386Z,100671.13
2023-04-30T08:03:16.071Z,100666.41
2023-04-30T08:05:42.642Z,100669.66
2023-04-30T08:08:09.159Z,100671.97
2023-04-30T08:10:37.266Z,100672.53
2023-04-30T08:13:05.386Z,100671.28
2023-04-30T08:15:34.212Z,100666.47
2023-04-30T08:18:00.782Z,100666.09
2023-04-30T08:20:27.299Z,100665.72
2023-04-30T08:22:53.854Z,100669.84
2023-04-30T08:25:20.677Z,100673.03
2023-04-30T08:27:47.302Z,100676.28
2023-04-30T08:30:13.930Z,100678.63
2023-04-30T08:32:40.531Z,100674.66
2023-04-30T08:35:08.059Z,100662.81
2023-04-30T08:37:34.737Z,100667.53
2023-04-30T08:40:01.305Z,100667.09
2023-04-30T08:42:37.003Z,100663.09
2023-04-30T08:45:04.413Z,100670.28
2023-04-30T08:47:31.111Z,100664.41
2023-04-30T08:49:57.829Z,100680.56
2023-04-30T08:52:26.862Z,100680.91
2023-04-30T08:54:54.902Z,100669.75
2023-04-30T08:57:21.500Z,100665.56
2023-04-30T08:59:51.024Z,100660.59
2023-04-30T09:02:17.625Z,100673.22
2023-04-30T09:04:44.946Z,100661.19
2023-04-30T09:07:14.474Z,100664.13
2023-04-30T09:09:41.147Z,100656.50
2023-04-30T09:12:18.605Z,100655.22
2023-04-30T09:15:05.650Z,100654.66
2023-04-30T09:17:34.335Z,100657.44
2023-04-30T09:20:11.892Z,100656.22
2023-04-30T09:22:40.017Z,100656.38
2023-04-30T09:25:08.223Z,100651.47
2023-04-30T09:27:35.041Z,100651.72
2023-04-30T09:30:01.764Z,100657.25
2023-04-30T09:32:28.458Z,100661.88
2023-04-30T09:34:55.767Z,100650.78
2023-04-30T09:37:22.187Z,100658.16
2023-04-30T09:39:54.191Z,100655.88
2023-04-30T09:42:21.211Z,100655.09
2023-04-30T09:44:48.974Z,100663.41
2023-04-30T09:47:18.062Z,100661.03
2023-04-30T09:49:47.975Z,100663.19
2023-04-30T09:52:15.940Z,100654.66
2023-04-30T09:54:44.585Z,100641.72
2023-04-30T09:57:13.428Z,100645.47
2023-04-30T09:59:44.098Z,100638.78
2023-04-30T10:02:13.301Z,100646.91
2023-04-30T10:04:43.344Z,100642.66
2023-04-30T10:07:17.552Z,100642.91
2023-04-30T10:09:51.436Z,100636.94
2023-04-30T10:12:24.332Z,100637.16
2023-04-30T10:15:04.545Z,100638.22
2023-04-30T10:17:33.408Z,100624.69
2023-04-30T10:20:05.709Z,100630.34
2023-04-30T10:22:34.845Z,100625.34
2023-04-30T10:25:02.478Z,100625.56
2023-04-30T10:27:33.274Z,100623.19
2023-04-30T10:30:00.334Z,100622.41
2023-04-30T10:32:53.036Z,100628.16
2023-04-30T10:35:24.427Z,100628.94
2023-04-30T10:37:55.073Z,100633.38
2023-04-30T10:40:21.795Z,100634.38
2023-04-30T10:42:49.936Z,100631.78
2023-04-30T10:45:17.368Z,100627.25
2023-04-30T10:47:47.287Z,100626.13
2023-04-30T10:50:14.345Z,100619.38
2023-04-30T10:52:40.906Z,100614.06
2023-04-30T10:55:09.946Z,100612.53
2023-04-30T10:57:43.793Z,100612.63
2023-04-30T11:00:10.501Z,100603.72
2023-04-30T11:02:43.681Z,100602.16
2023-04-30T11:05:14.428Z,100601.75
2023-04-30T11:07:52.140Z,100596.66
2023-04-30T11:10:27.435Z,100586.09
2023-04-30T11:12:55.826Z,100588.38
2023-04-30T11:15:26.623Z,100584.03
2023-04-30T11:17:58.531Z,100580.47
2023-04-30T11:20:26.522Z,100575.34
2023-04-30T11:23:25.204Z,100574.53
2023-04-30T11:26:01.203Z,100574.63
2023-04-30T11:28:28.626Z,100571.78
2023-04-30T11:30:59.656Z,100565.03
2023-04-30T11:33:28.051Z,100565.47
2023-04-30T11:35:56.375Z,100569.91
2023-04-30T11:38:36.644Z,100564.78
2023-04-30T11:41:04.340Z,100555.97
2023-04-30T11:43:32.474Z,100558.03
2023-04-30T11:46:06.043Z,100547.25
2023-04-30T11:48:44.153Z,100543.78
2023-04-30T11:51:20.517Z,100542.31
2023-04-30T11:53:48.926Z,100538.59
2023-04-30T11:56:21.330Z,100541.69
2023-04-30T11:58:49.417Z,100535.75
2023-04-30T12:01:17.418Z,100525.91
2023-04-30T12:03:45.897Z,100528.22
2023-04-30T12:06:26.309Z,100522.97
2023-04-30T12:09:07.182Z,100516.88
2023-04-30T12:11:35.138Z,100525.41
2023-04-30T12:14:05.419Z,100513.63
2023-04-30T12:16:51.251Z,100510.25
2023-04-30T12:19:19.488Z,100517.94
2023-04-30T12:21:47.490Z,100501.38
2023-04-30T12:24:19.152Z,100505.06
2023-04-30T12:26:46.591Z,100500.31
2023-04-30T12:29:15.873Z,100501.84
2023-04-30T12:31:43.221Z,100497.06
2023-04-30T12:34:14.446Z,100496.47
2023-04-30T12:36:44.712Z,100490.44
2023-04-30T12:39:15.891Z,100495.94
2023-04-30T12:41:47.610Z,100497.00
2023-04-30T12:44:21.192Z,100484.28
2023-04-30T12:46:49.579Z,100488.09
2023-04-30T12:49:26.615Z,100480.34
2023-04-30T12:51:59.902Z,100486.88
2023-04-30T12:54:30.851Z,100481.44
2023-04-30T12:57:09.106Z,100478.97
2023-04-30T12:59:39.001Z,100479.41
2023-04-30T13:02:08.054Z,100477.94
2023-04-30T13:04:36.192Z,100471.63
2023-04-30T13:07:03.544Z,100471.63
2023-04-30T13:09:31.408Z,100473.31
2023-04-30T13:11:57.894Z,100464.91
2023-04-30T13:14:24.544Z,100467.00
2023-04-30T13:16:51.040Z,100462.78
2023-04-30T13:19:17.716Z,100452.25
2023-04-30T13:21:44.300Z,100447.81
2023-04-30T13:24:10.876Z,100451.78
2023-04-30T13:26:37.577Z,100442.06
2023-04-30T13:29:04.317Z,100439.94
2023-04-30T13:31:31.714Z,100439.47
2023-04-30T13:33:58.295Z,100435.94
2023-04-30T13:36:25.095Z,100440.13
2023-04-30T13:38:51.655Z,100439.22
2023-04-30T13:41:18.181Z,100427.03
2023-04-30T13:43:46.322Z,100429.06
2023-04-30T13:46:12.977Z,100431.91
2023-04-30T13:48:39.473Z,100432.47
2023-04-30T13:51:06.162Z,100429.91
2023-04-30T13:53:32.708Z,100432.19
2023-04-30T13:55:59.448Z,100429.84
2023-04-30T13:58:26.276Z,100425.84
2023-04-30T14:00:52.667Z,100413.41
2023-04-30T14:03:19.250Z,100419.03
2023-04-30T14:05:46.508Z,100412.72
2023-04-30T14:08:12.893Z,100415.38
2023-04-30T14:10:39.214Z,100414.25
2023-04-30T14:13:05.523Z,100416.09
2023-04-30T14:15:32.485Z,100412.88
2023-04-30T14:18:00.427Z,100408.88
2023-04-30T14:20:27.409Z,100409.03
2023-04-30T14:22:53.728Z,100401.59
2023-04-30T14:25:20.429Z,100399.16
2023-04-30T14:27:47.329Z,100395.47
2023-04-30T14:30:13.759Z,100392.19
2023-04-30T14:32:40.155Z,100398.41
2023-04-30T14:35:07.194Z,100397.25
2023-04-30T14:37:33.595Z,100389.63
2023-04-30T14:40:01.787Z,100389.84
2023-04-30T14:42:28.328Z,100383.91
2023-04-30T14:44:54.664Z,100383.63
2023-04-30T14:47:22.403Z,100395.22
2023-04-30T14:49:51.901Z,100383.09
2023-04-30T14:52:18.419Z,100381.03
2023-04-30T14:54:45.124Z,100384.03
2023-04-30T14:57:11.539Z,100385.69
2023-04-30T14:59:39.933Z,100382.72
2023-04-30T15:02:07.247Z,100383.31
2023-04-30T15:04:35.274Z,100377.19
2023-04-30T15:07:02.666Z,100376.25
2023-04-30T15:09:29.221Z,100370.91
2023-04-30T15:11:55.934Z,100371.06
2023-04-30T15:14:22.232Z,100365.84
2023-04-30T15:16:48.695Z,100362.72
2023-04-30T15:19:15.118Z,100361.78
2023-04-30T15:21:41.441Z,100358.41
2023-04-30T15:24:08.811Z,100358.66
2023-04-30T15:26:35.241Z,100359.72
2023-04-30T15:29:01.650Z,100348.16
2023-04-30T15:31:28.075Z,100352.47
2023-04-30T15:33:54.433Z,100350.47
2023-04-30T15:36:23.133Z,100349.19
2023-04-30T15:38:49.459Z,100350.66
2023-04-30T15:41:15.753Z,100349.72
2023-04-30T15:43:42.394Z,100348.31
2023-04-30T15:46:08.781Z,100345.41
2023-04-30T15:48:35.202Z,100339.59
2023-04-30T15:51:01.591Z,100340.72
2023-04-30T15:53:27.941Z,100337.06
2023-04-30T15:55:54.672Z,100335.75
2023-04-30T15:58:21.179Z,100333.16
2023-04-30T16:00:47.623Z,100336.84
2023-04-30T16:03:14.032Z,100334.44
2023-04-30T16:05:40.951Z,100328.41
2023-04-30T16:08:08.860Z,100326.44
2023-04-30T16:10:35.899Z,100323.81
2023-04-30T16:13:02.718Z,100317.78
2023-04-30T16:15:30.074Z,100323.88
2023-04-30T16:17:56.987Z,100320.78
2023-04-30T16:20:24.253Z,100314.94
2023-04-30T16:22:50.823Z,100317.44
2023-04-30T16:25:17.163Z,100317.66
2023-04-30T16:27:44.195Z,100310.13
2023-04-30T16:30:11.077Z,100313.19
2023-04-30T16:32:37.612Z,100309.31
2023-04-30T16:35:07.418Z,100307.94
2023-04-30T16:37:33.754Z,100303.25
2023-04-30T16:40:01.415Z,100298.94
2023-04-30T16:42:27.896Z,100306.81
2023-04-30T16:44:54.675Z,100298.97
2023-04-30T16:47:21.024Z,100297.28
2023-04-30T16:49:47.407Z,100302.81
2023-04-30T16:52:14.493Z,100298.88
2023-04-30T16:54:40.815Z,100304.53
2023-04-30T16:57:07.123Z,100305.38
2023-04-30T16:59:33.423Z,100305.94
2023-04-30T17:02:01.790Z,100300.75
2023-04-30T17:04:28.170Z,100297.38
2023-04-30T17:06:54.997Z,100290.09
2023-04-30T17:09:21.353Z,100295.16
2023-04-30T17:11:47.706Z,100289.47
2023-04-30T17:14:14.141Z,100289.00
2023-04-30T17:16:40.556Z,100289.81
2023-04-30T17:19:07.750Z,100290.44
2023-04-30T17:21:34.168Z,100283.44
2023-04-30T17:24:00.480Z,100280.72
2023-04-30T17:26:26.819Z,100277.88
2023-04-30T17:28:53.130Z,100276.84
2023-04-30T17:31:19.617Z,100279.19
2023-04-30T17:33:46.267Z,100276.03
2023-04-30T17:36:13.022Z,100284.09
2023-04-30T17:38:39.329Z,100274.41
2023-04-30T17:41:05.698Z,100275.97
2023-04-30T17:43:32.101Z,100272.50
2023-04-30T17:45:58.566Z,100270.69
2023-04-30T17:48:24.985Z,100275.22
2023-04-30T17:50:51.356Z,100275.41
2023-04-30T17:53:17.662Z,100271.88
2023-04-30T17:55:44.012Z,100268.38
2023-04-30T17:58:11.421Z,100270.47
2023-04-30T18:00:40.392Z,100269.06
2023-04-30T18:03:07.014Z,100268.50
2023-04-30T18:05:35.625Z,100266.25
2023-04-30T18:08:02.271Z,100266.50
2023-04-30T18:10:28.677Z,100265.06
2023-04-30T18:12:57.989Z,100266.19
2023-04-30T18:15:24.348Z,100257.13
2023-04-30T18:17:50.968Z,100259.91
2023-04-30T18:20:17.317Z,100263.38
2023-04-30T18:22:43.853Z,100261.53
2023-04-30T18:25:12.922Z,100256.28
2023-04-30T18:27:40.962Z,100253.56
2023-04-30T18:30:08.885Z,100252.53
2023-04-30T18:32:36.612Z,100257.69
2023-04-30T18:35:04.420Z,100254.97
2023-04-30T18:37:31.768Z,100260.13
2023-04-30T18:39:58.467Z,100257.22
2023-04-30T18:42:24.850Z,100253.50
2023-04-30T18:44:51.321Z,100250.63
2023-04-30T18:47:17.761Z,100246.94
2023-04-30T18:49:44.074Z,100252.91
2023-04-30T18:52:10.410Z,100250.03
2023-04-30T18:54:36.857Z,100252.38
2023-04-30T18:57:05.757Z,100246.94
2023-04-30T18:59:32.217Z,100248.66
2023-04-30T19:01:58.631Z,100258.13
2023-04-30T19:04:25.142Z,100261.66
2023-04-30T19:06:52.691Z,100260.44
2023-04-30T19:09:19.028Z,100258.41
2023-04-30T19:11:45.349Z,100264.19
2023-04-30T19:14:11.800Z,100260.34
2023-04-30T19:16:38.157Z,100261.78
2023-04-30T19:19:04.680Z,100263.25
2023-04-30T19:21:32.441Z,100262.88
2023-04-30T19:23:58.806Z,100269.53
2023-04-30T19:26:25.793Z,100274.63
2023-04-30T19:28:52.235Z,100273.41
2023-04-30T19:31:18.709Z,100274.13
2023-04-30T19:33:45.278Z,100265.75
2023-04-30T19:36:11.669Z,100272.75
2023-04-30T19:38:38.074Z,100276.06
2023-04-30T19:41:04.583Z,100275.91
2023-04-30T19:43:31.442Z,100271.28
2023-04-30T19:45:58.894Z,100273.69
2023-04-30T19:48:25.941Z,100273.28
2023-04-30T19:50:53.615Z,100270.25
2023-04-30T19:53:21.571Z,100270.72
2023-04-30T19:55:48.075Z,100263.06
2023-04-30T20:01:08.450Z,100256.53
2023-04-30T20:03:35.705Z,100258.66
2023-04-30T20:06:05.906Z,100249.34
2023-04-30T20:08:32.532Z,100251.63
2023-04-30T20:11:00.764Z,100253.75
2023-04-30T20:13:27.978Z,100253.13
2023-04-30T20:15:54.570Z,100244.66
2023-04-30T20:18:21.243Z,100246.91
2023-04-30T20:20:48.589Z,100249.88
2023-04-30T20:23:16.907Z,100247.84
2023-04-30T20:25:45.394Z,100251.91
2023-04-30T20:28:13.190Z,100247.25
2023-04-30T20:30:42.833Z,100250.66
2023-04-30T20:33:13.890Z,100243.47
2023-04-30T20:35:46.142Z,100245.81
2023-04-30T20:38:13.064Z,100248.13
2023-04-30T20:40:42.406Z,100246.88
2023-04-30T20:43:11.673Z,100244.75
2023-04-30T20:45:38.312Z,100232.97
2023-04-30T20:48:05.730Z,100237.00
2023-04-30T20:50:32.323Z,100233.09
2023-04-30T20:52:58.843Z,100226.50
2023-04-30T20:55:25.353Z,100218.00
2023-04-30T20:57:51.791Z,100216.72
2023-04-30T21:00:18.653Z,100215.38
2023-04-30T21:02:45.503Z,100214.94
2023-04-30T21:05:12.174Z,100212.81
2023-04-30T21:07:38.910Z,100212.19
2023-04-30T21:10:06.414Z,100214.41
2023-04-30T21:12:33.330Z,100205.91
2023-04-30T21:15:00.735Z,100211.50
2023-04-30T21:17:28.271Z,100207.44
2023-04-30T21:19:56.621Z,100205.94
2023-04-30T21:22:23.984Z,100203.63
2023-04-30T21:24:55.288Z,100203.16
2023-04-30T21:27:22.187Z,100194.56
2023-04-30T21:29:48.791Z,100200.16
2023-04-30T21:32:15.372Z,100202.22
2023-04-30T21:34:41.877Z,100200.94
2023-04-30T21:37:08.388Z,100203.78
2023-04-30T21:39:34.933Z,100199.63
2023-04-30T21:42:01.498Z,100203.41
2023-04-30T21:44:32.337Z,100200.22
2023-04-30T21:46:59.656Z,100202.00
2023-04-30T21:49:26.482Z,100191.72
2023-04-30T21:51:53.119Z,100189.19
2023-04-30T21:54:19.739Z,100179.66
2023-04-30T21:56:46.324Z,100194.75
2023-04-30T21:59:12.746Z,100183.44
2023-04-30T22:01:39.299Z,100179.19
2023-04-30T22:04:06.026Z,100174.94
2023-04-30T22:06:34.998Z,100170.69
2023-04-30T22:09:01.794Z,100179.69
2023-04-30T22:11:28.829Z,100178.16
2023-04-30T22:13:55.268Z,100173.97
2023-04-30T22:16:21.826Z,100168.03
2023-04-30T22:18:48.530Z,100165.69
2023-04-30T22:21:15.169Z,100170.19
2023-04-30T22:23:41.825Z,100163.31
2023-04-30T22:26:09.938Z,100149.34
2023-04-30T22:28:37.818Z,100158.19
2023-04-30T22:31:04.612Z,100159.16
2023-04-30T22:33:36.047Z,100159.25
2023-04-30T22:36:05.212Z,100153.88
2023-04-30T22:38:32.074Z,100149.44
2023-04-30T22:41:00.371Z,100153.03
2023-04-30T22:43:30.685Z,100154.03
2023-04-30T22:45:59.185Z,100150.75
2023-04-30T22:48:27.705Z,100143.97
2023-04-30T22:50:54.636Z,100145.94
2023-04-30T22:53:21.884Z,100147.91
2023-04-30T22:55:48.694Z,100140.19
2023-04-30T22:58:15.920Z,100142.16
2023-04-30T23:00:42.590Z,100146.69
2023-04-30T23:03:09.320Z,100140.63
2023-04-30T23:05:36.097Z,100138.22
2023-04-30T23:08:03.072Z,100138.28
2023-04-30T23:10:29.741Z,100139.34
2023-04-30T23:12:58.623Z,100131.41
2023-04-30T23:15:26.093Z,100139.34
2023-04-30T23:17:54.429Z,100135.09
2023-04-30T23:20:22.627Z,100137.72
2023-04-30T23:22:49.501Z,100123.75
2023-04-30T23:25:16.875Z,100128.28
2023-04-30T23:27:44.873Z,100131.03
2023-04-30T23:30:11.739Z,100126.00
2023-04-30T23:32:38.351Z,100121.84
2023-04-30T23:35:06.853Z,100113.19
2023-04-30T23:37:33.390Z,100108.94
2023-04-30T23:40:00.877Z,100102.06
2023-04-30T23:42:27.334Z,100109.19
2023-04-30T23:44:53.921Z,100103.09
2023-04-30T23:47:20.881Z,100099.66
2023-04-30T23:49:47.326Z,100094.47
2023-04-30T23:52:14.522Z,100095.44
2023-04-30T23:54:42.326Z,100091.94
2023-04-30T23:57:09.094Z,100078.84
2023-04-30T23:59:35.719Z,100079.66
